Terminal Aerodrome Forecast
Issued by NWS Portland, ME

Home | Current Version | Previous Version | Text Only | Print | Product List | Glossary On
Versions: 1 2 3 4 5 6 7 8 9 10 11 12 13 14 15 16 17
000
FTUS41 KGYX 010520
TAFCON
TAF
KCON 010520Z 0106/0206 VRB03KT P6SM SKC
      TEMPO 0108/0112 3SM BR SCT002
     FM012300 00000KT P6SM SCT100
      TEMPO 0205/0206 3SM BR=

USA.gov is the U.S. government's official web portal to all federal, state and local government web resources and services.